Time;durP1;ratioP1;P1;durP2;ratioP2;P2;SDS_P1;SDS_P2;PMS_P1;PMS_P2;Temp;Humidity;BMP_temperature;BMP_pressure;BME280_temperature;BME280_humidity;BME280_pressure;Samples;Min_cycle;Max_cycle;Signal;HPM_P1;HPM_P2
2022/02/15 00:00:18;;;;;;;4.63;2.90;;;;;;;;;;5013318;28;20033;-87
2022/02/15 00:02:44;;;;;;;6.22;2.70;;;;;;;;;;5034764;28;20039;-85
2022/02/15 00:05:10;;;;;;;3.67;2.22;;;7.30;99.90;;;;;;5030595;28;20124;-87
2022/02/15 00:07:35;;;;;;;5.80;3.05;;;7.40;99.90;;;;;;5015421;28;20052;-85
2022/02/15 00:10:03;;;;;;;5.75;2.50;;;7.40;99.90;;;;;;5012391;28;20102;-87
2022/02/15 00:12:29;;;;;;;5.15;2.60;;;;;;;;;;5031805;28;20029;-86
2022/02/15 00:14:55;;;;;;;5.30;2.75;;;;;;;;;;5033943;28;20148;-86
2022/02/15 00:17:21;;;;;;;6.10;2.65;;;;;;;;;;5027847;28;20513;-87
2022/02/15 00:19:47;;;;;;;6.38;2.70;;;;;;;;;;5010694;28;21009;-87
2022/02/15 00:22:15;;;;;;;6.75;2.85;;;7.30;99.90;;;;;;5050764;22;20040;-88
2022/02/15 00:24:43;;;;;;;4.68;2.50;;;7.30;99.90;;;;;;5025808;28;20019;-90
2022/02/15 00:27:10;;;;;;;6.47;3.05;;;7.30;99.90;;;;;;5020331;28;20092;-84
2022/02/15 00:29:36;;;;;;;5.82;3.05;;;7.30;99.90;;;;;;5034025;28;20032;-81
2022/02/15 00:32:02;;;;;;;9.10;3.08;;;7.20;99.90;;;;;;5038524;28;20033;-84
2022/02/15 00:34:28;;;;;;;13.88;3.88;;;7.20;99.90;;;;;;5019341;28;20039;-85
2022/02/15 00:36:54;;;;;;;6.22;3.45;;;7.20;99.90;;;;;;5040191;28;20657;-86
2022/02/15 00:39:20;;;;;;;7.55;2.72;;;7.20;99.90;;;;;;5038548;28;20025;-85
2022/02/15 00:41:46;;;;;;;7.18;3.00;;;7.20;99.90;;;;;;5037440;28;20036;-83
2022/02/15 00:44:11;;;;;;;5.57;2.90;;;7.10;99.90;;;;;;5021585;28;20036;-86
2022/02/15 00:46:37;;;;;;;7.00;3.13;;;7.40;99.90;;;;;;5039174;28;20036;-87
2022/02/15 00:49:03;;;;;;;7.38;3.20;;;7.10;99.90;;;;;;5035888;28;20060;-86
2022/02/15 00:51:29;;;;;;;9.18;3.25;;;7.10;99.90;;;;;;5016538;28;20183;-83
2022/02/15 00:53:54;;;;;;;4.93;3.00;;;7.50;99.90;;;;;;5017547;28;20420;-84
2022/02/15 00:56:20;;;;;;;7.45;3.30;;;7.10;99.90;;;;;;5036892;28;20183;-85
2022/02/15 00:58:46;;;;;;;6.88;3.40;;;7.80;99.90;;;;;;5034438;28;20029;-87
2022/02/15 01:01:12;;;;;;;9.65;3.35;;;;;;;;;;5022521;28;20021;-84
2022/02/15 01:03:37;;;;;;;4.90;3.05;;;7.10;99.90;;;;;;5022521;28;20036;-84
2022/02/15 01:06:03;;;;;;;27.25;7.85;;;7.10;99.90;;;;;;5022758;28;20386;-85
2022/02/15 01:08:29;;;;;;;9.10;3.95;;;7.20;99.90;;;;;;5036547;28;20041;-85
2022/02/15 01:10:55;;;;;;;8.70;3.75;;;7.20;99.90;;;;;;5022187;28;20026;-87
2022/02/15 01:13:21;;;;;;;7.22;3.25;;;8.40;99.90;;;;;;5033965;28;20026;-85
2022/02/15 01:15:46;;;;;;;9.43;4.40;;;7.10;99.90;;;;;;5021683;28;20509;-84
2022/02/15 01:18:12;;;;;;;9.35;4.30;;;8.80;99.90;;;;;;5035443;28;20030;-85
2022/02/15 01:20:38;;;;;;;8.68;4.07;;;7.10;99.90;;;;;;5032454;28;20030;-85
2022/02/15 01:23:04;;;;;;;7.22;3.90;;;7.90;99.90;;;;;;5033776;28;20478;-86
2022/02/15 01:25:30;;;;;;;10.35;4.40;;;;;;;;;;5029525;28;20025;-85
2022/02/15 01:27:56;;;;;;;9.88;4.13;;;7.20;99.90;;;;;;5021534;28;20021;-87
2022/02/15 01:30:21;;;;;;;7.65;4.25;;;7.20;99.90;;;;;;5034277;28;20033;-85
2022/02/15 01:32:47;;;;;;;8.93;5.05;;;7.90;99.90;;;;;;5021901;28;20032;-82
2022/02/15 01:35:17;;;;;;;7.30;4.25;;;7.20;99.90;;;;;;5021204;28;20055;-84
2022/02/15 01:37:43;;;;;;;8.25;4.50;;;7.30;99.90;;;;;;5033709;28;20049;-87
2022/02/15 01:40:09;;;;;;;9.15;4.47;;;7.30;99.90;;;;;;5042418;28;20025;-86
2022/02/15 01:42:36;;;;;;;8.52;4.90;;;7.30;99.90;;;;;;5035908;28;20035;-89
2022/02/15 01:45:03;;;;;;;8.82;5.22;;;7.40;99.90;;;;;;5037381;28;20537;-87
2022/02/15 01:47:30;;;;;;;7.80;4.70;;;7.40;99.90;;;;;;5017285;28;21081;-86
2022/02/15 01:49:57;;;;;;;10.38;5.57;;;7.40;99.90;;;;;;5034610;28;20056;-85
2022/02/15 01:52:23;;;;;;;10.13;5.70;;;7.40;99.90;;;;;;5034195;28;20355;-81
2022/02/15 01:54:55;;;;;;;9.15;5.78;;;7.40;99.90;;;;;;5011872;28;20417;-85
2022/02/15 01:57:22;;;;;;;9.65;5.63;;;7.40;99.90;;;;;;5036478;28;20025;-84
2022/02/15 01:59:50;;;;;;;11.52;5.93;;;9.60;99.90;;;;;;5037747;28;20021;-84
2022/02/15 02:02:16;;;;;;;9.25;5.43;;;7.50;99.90;;;;;;5019396;28;20025;-84
2022/02/15 02:07:27;;;;;;;12.30;6.65;;;7.50;99.90;;;;;;5032848;28;20120;-83
2022/02/15 02:09:54;;;;;;;12.00;6.53;;;7.50;99.90;;;;;;5034605;28;20386;-85
2022/02/15 02:12:20;;;;;;;13.45;7.93;;;9.10;99.90;;;;;;5038273;28;20652;-86
2022/02/15 02:14:56;;;;;;;9.95;6.03;;;7.50;99.90;;;;;;5022139;28;20016;-85
2022/02/15 02:17:22;;;;;;;12.00;6.20;;;7.50;99.90;;;;;;5039707;28;20021;-81
2022/02/15 02:19:47;;;;;;;8.00;5.00;;;7.70;99.90;;;;;;5033184;28;20099;-84
2022/02/15 02:22:13;;;;;;;11.35;5.57;;;;;;;;;;5032550;28;20037;-82
2022/02/15 02:24:39;;;;;;;7.65;4.93;;;7.80;99.90;;;;;;5033923;28;20029;-86
2022/02/15 02:27:05;;;;;;;8.05;4.70;;;7.70;99.90;;;;;;5016945;28;20056;-82
2022/02/15 02:29:31;;;;;;;9.52;4.88;;;7.70;99.90;;;;;;5037815;28;20053;-81
2022/02/15 02:31:56;;;;;;;10.45;6.38;;;7.80;99.90;;;;;;5019028;28;20437;-85
2022/02/15 02:34:22;;;;;;;8.50;5.32;;;7.70;99.90;;;;;;5035410;28;20477;-83
2022/02/15 02:36:49;;;;;;;6.97;4.30;;;7.70;99.90;;;;;;5032582;28;20021;-85
2022/02/15 02:39:15;;;;;;;6.38;4.68;;;9.00;99.90;;;;;;5015001;28;20029;-87
2022/02/15 02:41:40;;;;;;;8.18;5.30;;;7.70;99.90;;;;;;5021777;28;20075;-87
2022/02/15 02:44:06;;;;;;;12.73;4.78;;;7.70;99.90;;;;;;5018004;28;20504;-87
2022/02/15 02:46:32;;;;;;;6.90;4.50;;;8.30;99.90;;;;;;5035027;28;20036;-84
2022/02/15 02:48:58;;;;;;;9.30;5.10;;;7.60;99.90;;;;;;5017014;28;20065;-86
2022/02/15 02:51:23;;;;;;;8.77;5.35;;;7.60;99.90;;;;;;5017156;28;20025;-86
2022/02/15 02:53:49;;;;;;;7.97;4.72;;;7.60;99.90;;;;;;5018664;28;20022;-88
2022/02/15 02:56:14;;;;;;;7.93;4.95;;;7.90;99.90;;;;;;5017722;28;20094;-84
2022/02/15 02:58:40;;;;;;;7.05;4.80;;;7.60;99.90;;;;;;5019349;28;20025;-82
2022/02/15 03:01:06;;;;;;;10.02;5.15;;;7.60;99.90;;;;;;5035960;28;20107;-85
2022/02/15 03:03:31;;;;;;;11.68;5.30;;;7.60;99.90;;;;;;5015451;28;20293;-85
2022/02/15 03:05:58;;;;;;;7.82;5.18;;;11.20;99.90;;;;;;5012271;28;20025;-84
2022/02/15 03:08:24;;;;;;;9.38;5.10;;;10.30;99.90;;;;;;5030326;28;20025;-85
2022/02/15 03:10:49;;;;;;;8.23;5.07;;;9.50;99.90;;;;;;5024909;28;20030;-84
2022/02/15 03:13:15;;;;;;;9.23;5.35;;;8.60;99.90;;;;;;5033970;28;20026;-83
2022/02/15 03:15:41;;;;;;;11.15;5.28;;;7.70;99.90;;;;;;5019974;28;20025;-82
2022/02/15 03:18:06;;;;;;;10.02;5.35;;;7.60;99.90;;;;;;5024371;28;20034;-83
2022/02/15 03:20:32;;;;;;;9.63;5.43;;;7.60;99.90;;;;;;5036116;28;20030;-85
2022/02/15 03:22:58;;;;;;;8.00;5.28;;;7.60;99.90;;;;;;5026306;28;20030;-85
2022/02/15 03:25:23;;;;;;;11.98;5.43;;;7.60;99.90;;;;;;5025214;28;20052;-84
2022/02/15 03:27:49;;;;;;;10.43;5.13;;;7.60;99.90;;;;;;5026275;28;20063;-83
2022/02/15 03:30:15;;;;;;;9.63;5.47;;;7.70;99.90;;;;;;5021270;28;20029;-85
2022/02/15 03:32:42;;;;;;;8.70;4.43;;;;;;;;;;5033240;22;20559;-89
2022/02/15 03:35:08;;;;;;;11.57;4.68;;;7.60;99.90;;;;;;5039677;28;20029;-89
2022/02/15 03:37:34;;;;;;;7.75;4.70;;;;;;;;;;5026272;28;20025;-83
2022/02/15 03:40:00;;;;;;;11.68;6.25;;;7.50;99.90;;;;;;5035235;28;20052;-86
2022/02/15 03:45:09;;;;;;;11.93;6.50;;;8.40;99.90;;;;;;5038919;28;20049;-89
2022/02/15 03:47:35;;;;;;;11.98;5.93;;;;;;;;;;5029732;28;20976;-86
2022/02/15 03:50:01;;;;;;;7.93;4.65;;;7.70;99.90;;;;;;5031978;28;20029;-86
2022/02/15 03:52:27;;;;;;;12.65;4.80;;;;;;;;;;5016510;28;20341;-87
2022/02/15 03:54:53;;;;;;;9.27;5.13;;;7.60;99.90;;;;;;5009093;28;20130;-87
2022/02/15 03:57:18;;;;;;;8.82;5.07;;;7.50;99.90;;;;;;5023836;28;20089;-85
2022/02/15 03:59:44;;;;;;;7.28;4.50;;;10.20;99.90;;;;;;5019187;28;20512;-83
2022/02/15 04:02:10;;;;;;;8.75;4.70;;;;;;;;;;5023599;28;20213;-88
2022/02/15 04:04:36;;;;;;;8.38;5.03;;;7.40;99.90;;;;;;5008364;28;20045;-87
2022/02/15 04:07:02;;;;;;;8.73;4.55;;;;;;;;;;5013553;28;20064;-85
2022/02/15 04:09:27;;;;;;;7.07;4.70;;;7.30;99.90;;;;;;5041975;28;20567;-87
2022/02/15 04:11:53;;;;;;;10.65;4.43;;;;;;;;;;5028181;28;20045;-86
2022/02/15 04:14:19;;;;;;;8.73;4.03;;;7.30;99.90;;;;;;5027961;28;20051;-87
2022/02/15 04:16:45;;;;;;;7.05;3.67;;;7.20;99.90;;;;;;5020831;28;20029;-85
2022/02/15 04:19:10;;;;;;;7.32;3.65;;;7.40;99.90;;;;;;5037169;28;20120;-83
2022/02/15 04:21:36;;;;;;;7.13;4.00;;;7.40;99.90;;;;;;5018706;28;20037;-86
2022/02/15 04:24:02;;;;;;;7.13;3.58;;;7.80;99.90;;;;;;5037556;28;20034;-83
2022/02/15 04:26:27;;;;;;;6.35;3.85;;;7.80;99.90;;;;;;5022783;28;20554;-85
2022/02/15 04:28:53;;;;;;;6.43;3.60;;;;;;;;;;5015979;28;20480;-83
2022/02/15 04:31:19;;;;;;;8.82;3.40;;;7.40;99.90;;;;;;5022405;28;20040;-85
2022/02/15 04:33:45;;;;;;;5.53;3.22;;;6.90;99.90;;;;;;5037658;28;20032;-89
2022/02/15 04:36:11;;;;;;;4.95;2.95;;;7.40;99.90;;;;;;5029363;28;20025;-82
2022/02/15 04:38:37;;;;;;;7.28;3.03;;;7.50;99.90;;;;;;5040200;28;20482;-84
2022/02/15 04:41:03;;;;;;;5.47;2.92;;;7.70;99.90;;;;;;5018488;28;20030;-88
2022/02/15 04:43:29;;;;;;;4.60;2.90;;;7.40;99.90;;;;;;5021991;28;20037;-86
2022/02/15 04:45:55;;;;;;;8.80;3.58;;;9.80;99.90;;;;;;5030696;28;20118;-87
2022/02/15 04:48:21;;;;;;;7.90;3.55;;;;;;;;;;5040934;28;20033;-85
2022/02/15 04:50:47;;;;;;;4.20;2.58;;;;;;;;;;5028429;28;20021;-87
2022/02/15 04:53:13;;;;;;;5.82;3.13;;;7.30;99.90;;;;;;5016087;28;20052;-88
2022/02/15 04:55:39;;;;;;;5.35;2.50;;;;;;;;;;5031820;28;20125;-84
2022/02/15 04:58:04;;;;;;;4.47;2.33;;;7.40;99.90;;;;;;5023763;28;20021;-86
2022/02/15 05:00:30;;;;;;;3.97;2.53;;;;;;;;;;5012338;28;20025;-87
2022/02/15 05:02:56;;;;;;;4.25;2.50;;;7.50;99.90;;;;;;5027067;28;20037;-87
2022/02/15 05:05:21;;;;;;;5.25;2.63;;;8.00;99.90;;;;;;5012589;28;20021;-86
2022/02/15 05:07:47;;;;;;;5.18;2.50;;;;;;;;;;5011707;28;20036;-88
2022/02/15 05:10:13;;;;;;;5.07;2.50;;;7.70;99.90;;;;;;5025789;28;20029;-87
2022/02/15 05:12:39;;;;;;;5.50;2.63;;;7.60;99.90;;;;;;5013923;28;20041;-88
2022/02/15 05:15:09;;;;;;;4.85;2.30;;;10.10;99.90;;;;;;5007950;28;20448;-86
2022/02/15 05:17:37;;;;;;;6.03;2.40;;;7.60;99.90;;;;;;5012240;28;21070;-87
2022/02/15 05:20:04;;;;;;;4.55;2.70;;;7.60;99.90;;;;;;5024035;28;20034;-84
2022/02/15 05:22:30;;;;;;;5.57;2.67;;;7.70;99.90;;;;;;5005450;28;20079;-86
2022/02/15 05:24:55;;;;;;;8.73;2.65;;;7.70;99.90;;;;;;4996604;28;20299;-88
2022/02/15 05:27:21;;;;;;;4.78;2.95;;;;;;;;;;5008343;28;20049;-88
2022/02/15 05:29:47;;;;;;;5.38;2.50;;;7.70;99.90;;;;;;5009742;28;20048;-87
2022/02/15 05:32:13;;;;;;;4.25;2.55;;;10.00;99.90;;;;;;5009997;28;20021;-90
2022/02/15 05:34:42;;;;;;;4.25;2.55;;;;;;;;;;5009213;28;20045;-87
2022/02/15 05:37:08;;;;;;;6.57;2.55;;;7.70;99.90;;;;;;5002688;28;20022;-86
2022/02/15 05:39:34;;;;;;;4.75;2.63;;;8.10;99.90;;;;;;5009772;28;20033;-87
2022/02/15 05:41:59;;;;;;;6.40;3.13;;;8.40;99.90;;;;;;5023556;28;20084;-88
2022/02/15 05:44:25;;;;;;;4.60;2.33;;;7.60;99.90;;;;;;5013406;28;20034;-85
2022/02/15 05:46:51;;;;;;;5.85;2.63;;;7.50;99.90;;;;;;5013336;28;20783;-85
2022/02/15 05:49:17;;;;;;;5.80;3.08;;;;;;;;;;5007020;28;20029;-89
2022/02/15 05:51:43;;;;;;;5.28;2.67;;;;;;;;;;5005738;28;20041;-84
2022/02/15 05:54:08;;;;;;;6.03;3.00;;;7.50;99.90;;;;;;5033496;28;20371;-87
2022/02/15 05:56:35;;;;;;;3.65;2.20;;;9.20;99.90;;;;;;5008882;28;20029;-88
2022/02/15 05:59:01;;;;;;;7.93;3.17;;;;;;;;;;5013399;28;20030;-88
2022/02/15 06:01:40;;;;;;;5.45;2.47;;;7.50;99.90;;;;;;5006858;28;20026;-87
2022/02/15 06:06:35;;;;;;;6.43;2.53;;;7.50;99.90;;;;;;5029594;28;20041;-86
2022/02/15 06:09:02;;;;;;;6.50;2.80;;;7.50;99.90;;;;;;5011068;28;20021;-86
2022/02/15 06:11:28;;;;;;;4.72;2.50;;;7.50;99.90;;;;;;5029488;28;20025;-87
2022/02/15 06:13:55;;;;;;;5.55;2.78;;;7.40;99.90;;;;;;5012693;28;20079;-87
2022/02/15 06:16:25;;;;;;;6.50;2.60;;;7.40;99.90;;;;;;4982700;28;20018;-84
2022/02/15 06:18:55;;;;;;;6.65;2.80;;;7.40;99.90;;;;;;4987705;28;20500;-85
2022/02/15 06:21:21;;;;;;;6.20;2.47;;;7.40;99.90;;;;;;4998838;28;20053;-85
2022/02/15 06:23:47;;;;;;;5.82;2.70;;;;;;;;;;5010893;28;20055;-84
2022/02/15 06:26:13;;;;;;;3.92;2.50;;;7.30;99.90;;;;;;4998076;28;20378;-83
2022/02/15 06:28:39;;;;;;;4.53;2.90;;;7.50;99.90;;;;;;4989908;28;20117;-81
2022/02/15 06:31:05;;;;;;;4.97;2.40;;;7.50;99.90;;;;;;4994116;28;20033;-84
2022/02/15 06:33:34;;;;;;;5.30;2.70;;;7.50;99.90;;;;;;4989303;28;20025;-82
2022/02/15 06:36:01;;;;;;;5.15;2.60;;;7.50;99.90;;;;;;4994036;28;20026;-84
2022/02/15 06:38:26;;;;;;;6.28;2.45;;;7.50;99.90;;;;;;4987012;28;20040;-82
2022/02/15 06:40:52;;;;;;;5.18;2.65;;;7.40;99.90;;;;;;4986391;28;20038;-84
2022/02/15 06:43:18;;;;;;;7.43;3.08;;;7.50;99.90;;;;;;4987502;28;20449;-84
2022/02/15 06:45:44;;;;;;;6.28;2.80;;;9.00;99.90;;;;;;4988352;28;20088;-84
2022/02/15 06:48:11;;;;;;;6.78;2.35;;;9.20;99.90;;;;;;4999462;28;20101;-82
2022/02/15 06:50:37;;;;;;;6.60;2.63;;;7.30;99.90;;;;;;5002003;28;20046;-79
2022/02/15 06:53:03;;;;;;;6.38;2.80;;;7.40;99.90;;;;;;5002966;28;20223;-84
2022/02/15 06:55:29;;;;;;;4.72;2.40;;;7.40;99.90;;;;;;4988418;28;20034;-83
2022/02/15 06:57:55;;;;;;;10.40;2.70;;;8.00;99.90;;;;;;4988225;28;20033;-87
2022/02/15 07:00:20;;;;;;;6.63;2.80;;;7.40;99.90;;;;;;5002153;28;20081;-84
2022/02/15 07:02:46;;;;;;;4.10;2.28;;;7.40;99.90;;;;;;4993401;28;20052;-86
2022/02/15 07:05:12;;;;;;;6.47;2.53;;;6.20;99.90;;;;;;4989636;28;20037;-86
2022/02/15 07:07:38;;;;;;;7.70;2.35;;;7.50;99.90;;;;;;4989332;28;20127;-85
2022/02/15 07:10:05;;;;;;;7.70;2.55;;;7.90;99.90;;;;;;4986835;28;20030;-83
2022/02/15 07:12:32;;;;;;;7.30;2.45;;;6.20;99.90;;;;;;4994426;28;20033;-84
2022/02/15 07:14:58;;;;;;;4.95;2.92;;;7.60;99.90;;;;;;4994713;28;20026;-87
2022/02/15 07:17:27;;;;;;;7.90;2.50;;;7.50;99.90;;;;;;4994045;28;20149;-86
2022/02/15 07:19:53;;;;;;;5.28;2.60;;;7.60;99.90;;;;;;5009136;28;20022;-87
2022/02/15 07:22:20;;;;;;;7.97;2.63;;;7.60;99.90;;;;;;4994149;28;20110;-81
2022/02/15 07:24:46;;;;;;;6.88;2.70;;;7.60;99.90;;;;;;4982894;28;20034;-84
2022/02/15 07:27:11;;;;;;;5.30;2.70;;;7.50;99.90;;;;;;4991198;28;20386;-86
2022/02/15 07:29:37;;;;;;;7.75;2.90;;;7.60;99.90;;;;;;5000640;28;20034;-82
2022/02/15 07:32:03;;;;;;;4.38;2.60;;;7.60;99.90;;;;;;5021167;28;20045;-86
2022/02/15 07:34:29;;;;;;;4.50;2.70;;;7.60;99.90;;;;;;5000042;28;20473;-85
2022/02/15 07:36:55;;;;;;;6.35;2.60;;;7.50;99.90;;;;;;4997079;28;20026;-80
2022/02/15 07:39:20;;;;;;;5.70;2.58;;;7.60;99.90;;;;;;5003124;28;20030;-80
2022/02/15 07:41:47;;;;;;;5.00;2.33;;;7.60;99.90;;;;;;5000752;28;20034;-82
2022/02/15 07:44:12;;;;;;;4.72;2.58;;;7.60;99.90;;;;;;4999482;28;20038;-83
2022/02/15 07:46:38;;;;;;;8.50;2.90;;;7.70;99.90;;;;;;5002440;28;20040;-82
2022/02/15 07:49:04;;;;;;;7.50;2.88;;;7.60;99.90;;;;;;4993807;28;20030;-82
2022/02/15 07:51:30;;;;;;;8.38;3.13;;;7.70;99.90;;;;;;5001555;28;20049;-88
2022/02/15 07:53:56;;;;;;;4.55;2.75;;;7.60;99.90;;;;;;5000565;28;20026;-85
2022/02/15 07:56:21;;;;;;;7.90;3.15;;;7.60;99.90;;;;;;5004239;28;20033;-82
2022/02/15 07:58:47;;;;;;;6.65;3.28;;;7.70;99.90;;;;;;5019005;28;20453;-81
2022/02/15 08:01:13;;;;;;;6.63;3.22;;;7.80;99.90;;;;;;5008250;28;20073;-85
2022/02/15 08:03:39;;;;;;;10.50;3.63;;;;;;;;;;5004585;28;20029;-84
2022/02/15 08:06:05;;;;;;;8.55;3.35;;;8.00;99.90;;;;;;5015601;28;20405;-85
2022/02/15 08:08:30;;;;;;;7.80;3.20;;;8.60;99.90;;;;;;5023054;28;20022;-80
2022/02/15 08:10:57;;;;;;;7.18;3.90;;;7.80;99.90;;;;;;5016967;28;20068;-82
2022/02/15 08:13:24;;;;;;;6.75;2.90;;;7.80;99.90;;;;;;5020261;28;20030;-84
2022/02/15 08:15:50;;;;;;;5.15;2.78;;;7.90;99.90;;;;;;5023050;28;20022;-85
2022/02/15 08:18:17;;;;;;;11.70;3.85;;;7.90;99.90;;;;;;5005549;28;20068;-82
2022/02/15 08:20:43;;;;;;;7.03;3.38;;;8.90;99.90;;;;;;5002617;28;20376;-82
2022/02/15 08:23:12;;;;;;;8.73;3.80;;;7.80;99.90;;;;;;4994053;28;20125;-82
2022/02/15 08:25:38;;;;;;;5.13;3.28;;;10.20;99.90;;;;;;5008075;28;20026;-87
2022/02/15 08:28:04;;;;;;;10.10;3.72;;;7.70;99.90;;;;;;5005442;28;20026;-83
2022/02/15 08:30:30;;;;;;;10.07;3.17;;;7.80;99.90;;;;;;5010444;28;20401;-85
2022/02/15 08:32:56;;;;;;;6.80;3.50;;;7.80;99.90;;;;;;5007860;28;20046;-80
2022/02/15 08:35:21;;;;;;;7.10;3.78;;;7.90;99.90;;;;;;5003305;28;20058;-82
2022/02/15 08:37:49;;;;;;;8.48;3.90;;;10.70;99.90;;;;;;5007354;28;20065;-85
2022/02/15 08:40:15;;;;;;;8.23;4.05;;;8.00;99.90;;;;;;5006570;28;20049;-81
2022/02/15 08:42:42;;;;;;;9.07;3.92;;;8.00;99.90;;;;;;5004243;28;20482;-80
2022/02/15 08:45:09;;;;;;;7.20;3.55;;;5.70;99.90;;;;;;5001878;28;20065;-80
2022/02/15 08:47:36;;;;;;;7.75;4.18;;;8.10;99.90;;;;;;5005020;28;20037;-83
2022/02/15 08:50:02;;;;;;;5.93;3.42;;;8.50;99.90;;;;;;5000864;28;20036;-85
2022/02/15 08:52:28;;;;;;;8.57;3.53;;;;;;;;;;5004055;28;20029;-80
2022/02/15 08:54:54;;;;;;;7.03;2.88;;;8.00;99.90;;;;;;5019419;28;20030;-82
2022/02/15 08:57:21;;;;;;;5.15;3.33;;;;;;;;;;5004909;28;20018;-80
2022/02/15 08:59:48;;;;;;;6.13;3.10;;;;;;;;;;5006234;28;20026;-84
2022/02/15 09:02:13;;;;;;;6.95;2.80;;;8.20;99.90;;;;;;5002756;28;20021;-83
2022/02/15 09:04:40;;;;;;;6.20;3.25;;;;;;;;;;4999771;28;20025;-81
2022/02/15 09:07:08;;;;;;;7.55;3.55;;;8.50;99.90;;;;;;5012212;28;20030;-84
2022/02/15 09:09:35;;;;;;;8.85;3.25;;;;;;;;;;5005010;28;20433;-87
2022/02/15 09:12:01;;;;;;;7.03;3.17;;;;;;;;;;5002982;28;20031;-84
2022/02/15 09:14:29;;;;;;;5.72;3.20;;;8.50;99.90;;;;;;5025032;28;20032;-85
2022/02/15 09:16:56;;;;;;;6.15;3.00;;;8.50;99.90;;;;;;5006497;28;20029;-81
2022/02/15 09:19:22;;;;;;;8.32;3.72;;;9.80;99.90;;;;;;5004788;28;20045;-84
2022/02/15 09:21:50;;;;;;;8.35;3.55;;;8.50;99.90;;;;;;5004645;28;20033;-81
2022/02/15 09:24:16;;;;;;;5.47;3.00;;;8.50;99.90;;;;;;5014006;28;20038;-82
2022/02/15 09:26:42;;;;;;;6.53;3.13;;;8.50;99.90;;;;;;5016693;28;20056;-83
2022/02/15 09:29:09;;;;;;;8.18;3.38;;;8.70;99.90;;;;;;5001285;28;20030;-84
2022/02/15 09:31:37;;;;;;;6.88;3.13;;;8.60;99.90;;;;;;5025420;28;20026;-86
2022/02/15 09:34:04;;;;;;;7.20;3.65;;;8.60;99.90;;;;;;5020679;28;20406;-88
2022/02/15 09:36:30;;;;;;;10.73;3.50;;;8.60;99.90;;;;;;5001447;28;20097;-80
2022/02/15 09:38:56;;;;;;;8.27;3.45;;;8.50;99.90;;;;;;5003948;28;20459;-83
2022/02/15 09:41:22;;;;;;;7.30;3.58;;;;;;;;;;5005877;28;20062;-83
2022/02/15 09:43:48;;;;;;;7.93;3.20;;;8.60;99.90;;;;;;5025423;28;20034;-81
2022/02/15 09:46:15;;;;;;;8.18;2.95;;;8.80;99.90;;;;;;5010299;28;20623;-85
2022/02/15 09:48:43;;;;;;;5.13;2.38;;;8.80;99.90;;;;;;5010156;28;20064;-86
2022/02/15 09:51:10;;;;;;;6.65;2.70;;;9.10;99.90;;;;;;5001088;28;20113;-85
2022/02/15 09:53:36;;;;;;;6.68;2.85;;;8.80;99.90;;;;;;5008879;28;20423;-85
2022/02/15 09:56:04;;;;;;;11.63;5.93;;;7.30;99.90;;;;;;5002900;28;20033;-86
2022/02/15 09:58:34;;;;;;;7.43;2.95;;;9.00;99.90;;;;;;5002455;28;20026;-85
2022/02/15 10:01:01;;;;;;;6.50;2.78;;;9.00;99.90;;;;;;5007500;28;20025;-86
2022/02/15 10:03:27;;;;;;;5.45;2.95;;;9.10;99.90;;;;;;5005159;28;20076;-84
2022/02/15 10:05:53;;;;;;;8.32;3.20;;;9.10;99.90;;;;;;5007588;28;20030;-85
2022/02/15 10:08:31;;;;;;;6.57;2.72;;;12.80;99.90;;;;;;5004888;28;20038;-82
2022/02/15 10:11:13;;;;;;;9.65;2.50;;;9.20;99.90;;;;;;5019644;28;20053;-86
2022/02/15 10:13:47;;;;;;;8.50;2.95;;;9.20;99.90;;;;;;5003467;28;20438;-82
2022/02/15 10:16:15;;;;;;;6.80;2.83;;;9.10;99.90;;;;;;5003408;28;20022;-88
2022/02/15 10:18:41;;;;;;;7.07;2.40;;;;;;;;;;5003640;28;20021;-86
2022/02/15 10:21:08;;;;;;;6.28;2.47;;;;;;;;;;5004351;28;20022;-87
2022/02/15 10:23:34;;;;;;;7.03;2.65;;;;;;;;;;5022769;28;20026;-84
2022/02/15 10:26:01;;;;;;;4.32;2.15;;;9.10;99.90;;;;;;5003683;28;20061;-84
2022/02/15 10:28:33;;;;;;;3.63;2.08;;;;;;;;;;5003601;28;20385;-87
2022/02/15 10:31:02;;;;;;;6.80;3.45;;;9.40;99.90;;;;;;5002918;28;20101;-84
2022/02/15 10:33:37;;;;;;;5.80;2.25;;;9.50;99.90;;;;;;5004732;28;20025;-85
2022/02/15 10:36:09;;;;;;;8.55;2.45;;;9.50;99.90;;;;;;5004707;28;20071;-87
2022/02/15 10:38:39;;;;;;;5.55;2.65;;;9.50;99.90;;;;;;5022305;28;20032;-84
2022/02/15 10:41:11;;;;;;;4.88;1.90;;;9.40;99.90;;;;;;5022017;28;20030;-87
2022/02/15 10:43:53;;;;;;;4.55;1.95;;;;;;;;;;5005019;28;20061;-85
2022/02/15 10:46:24;;;;;;;3.70;1.52;;;9.40;99.90;;;;;;5005778;28;20124;-88
2022/02/15 10:48:58;;;;;;;;;;;9.40;99.90;;;;;;5006672;28;20117;-85
2022/02/15 10:51:28;;;;;;;5.07;1.85;;;9.40;99.90;;;;;;5007054;28;19910;-83
2022/02/15 10:53:54;;;;;;;4.93;1.50;;;;;;;;;;5006193;28;20057;-85
2022/02/15 10:56:21;;;;;;;4.53;1.40;;;;;;;;;;5006886;28;20025;-86
2022/02/15 10:58:53;;;;;;;5.20;1.70;;;;;;;;;;5004083;28;20049;-87
2022/02/15 11:01:19;;;;;;;4.38;1.40;;;;;;;;;;5010377;28;20113;-86
2022/02/15 11:03:46;;;;;;;4.47;1.52;;;;;;;;;;5022081;28;20033;-89
2022/02/15 11:06:12;;;;;;;4.47;1.17;;;9.40;99.90;;;;;;5020392;28;20053;-88
2022/02/15 11:08:47;;;;;;;3.17;1.17;;;9.20;99.90;;;;;;5024339;28;20033;-85
2022/02/15 11:11:21;;;;;;;2.95;1.30;;;9.70;99.90;;;;;;5008019;28;20022;-88
2022/02/15 11:13:48;;;;;;;3.85;1.42;;;9.20;99.90;;;;;;5025546;28;20060;-89
2022/02/15 11:16:21;;;;;;;2.78;1.38;;;9.30;99.90;;;;;;5005309;28;20026;-89
2022/02/15 11:18:47;;;;;;;4.18;1.58;;;9.40;99.90;;;;;;5007053;28;20026;-88
2022/02/15 11:21:39;;;;;;;6.43;1.60;;;9.60;99.90;;;;;;5005903;28;20023;-89
2022/02/15 11:24:11;;;;;;;2.83;1.27;;;9.60;99.90;;;;;;5005715;28;20049;-88
2022/02/15 11:26:42;;;;;;;2.67;1.20;;;;;;;;;;5028837;28;20033;-85
2022/02/15 11:29:21;;;;;;;;;;;11.50;99.90;;;;;;5028480;28;20096;-87
2022/02/15 11:31:47;;;;;;;3.13;1.60;;;9.50;99.90;;;;;;5026050;28;19917;-89
2022/02/15 11:34:14;;;;;;;5.85;1.75;;;9.50;99.90;;;;;;5011677;28;20080;-88
2022/02/15 11:36:53;;;;;;;4.38;1.67;;;;;;;;;;5009553;28;20142;-87
2022/02/15 11:39:23;;;;;;;3.25;1.33;;;;;;;;;;5019466;28;20030;-87
2022/02/15 11:41:54;;;;;;;4.97;1.30;;;;;;;;;;5021544;28;20025;-87
2022/02/15 11:44:31;;;;;;;2.42;1.25;;;9.90;99.90;;;;;;5022292;28;20505;-88
2022/02/15 11:47:10;;;;;;;4.35;1.33;;;;;;;;;;5011993;28;20483;-87
2022/02/15 11:49:36;;;;;;;8.23;1.90;;;;;;;;;;5024397;28;20170;-89
2022/02/15 11:52:02;;;;;;;4.13;1.35;;;9.70;99.90;;;;;;5010341;28;20030;-87
2022/02/15 11:54:33;;;;;;;4.18;1.30;;;9.60;99.90;;;;;;5006872;28;20029;-88
2022/02/15 11:57:00;;;;;;;3.25;1.33;;;9.60;99.90;;;;;;5007314;28;20029;-87
2022/02/15 11:59:27;;;;;;;3.72;1.55;;;;;;;;;;5026865;28;20030;-89
2022/02/15 12:01:58;;;;;;;5.30;1.40;;;9.60;99.90;;;;;;5005998;28;20549;-89
2022/02/15 12:04:24;;;;;;;2.72;1.20;;;9.80;99.90;;;;;;4999969;28;20034;-88
2022/02/15 12:06:50;;;;;;;3.00;1.35;;;;;;;;;;5011559;28;20033;-86
2022/02/15 12:09:16;;;;;;;5.68;1.65;;;10.30;98.60;;;;;;5027210;28;20033;-87
2022/02/15 12:11:46;;;;;;;3.90;1.20;;;10.40;97.80;;;;;;5007263;28;20030;-84
2022/02/15 12:14:26;;;;;;;4.50;1.50;;;10.40;97.80;;;;;;5007442;28;20034;-88
2022/02/15 12:16:58;;;;;;;5.45;1.13;;;10.20;98.80;;;;;;5007676;28;20030;-85
2022/02/15 12:19:33;;;;;;;5.03;1.45;;;10.20;98.90;;;;;;5005483;28;20034;-83
2022/02/15 12:22:10;;;;;;;4.90;1.60;;;10.10;99.40;;;;;;5025151;28;20032;-88
2022/02/15 12:24:36;;;;;;;6.03;1.55;;;10.00;99.90;;;;;;5006966;28;20386;-83
2022/02/15 12:27:04;;;;;;;5.68;1.55;;;10.00;99.90;;;;;;5024432;28;20030;-87
2022/02/15 12:29:30;;;;;;;4.25;1.20;;;10.10;99.90;;;;;;5014552;28;20026;-88
2022/02/15 12:31:57;;;;;;;3.95;1.52;;;10.10;99.90;;;;;;5016676;28;20026;-88
2022/02/15 12:34:24;;;;;;;3.47;1.20;;;10.40;99.10;;;;;;4995214;28;20030;-88
2022/02/15 12:36:50;;;;;;;5.18;1.80;;;10.50;97.40;;;;;;5010655;28;20030;-88
2022/02/15 12:39:17;;;;;;;5.40;1.40;;;10.50;97.80;;;;;;4998121;28;20045;-87
2022/02/15 12:41:47;;;;;;;4.88;1.70;;;;;;;;;;5022992;28;20109;-86
2022/02/15 12:44:13;;;;;;;5.60;1.38;;;;;;;;;;5023235;28;20517;-86
2022/02/15 12:46:39;;;;;;;5.28;1.52;;;;;;;;;;5025245;28;20486;-86
2022/02/15 12:49:09;;;;;;;4.50;1.23;;;11.10;95.50;;;;;;5020025;28;20037;-85
2022/02/15 12:51:39;;;;;;;2.78;1.20;;;11.30;95.10;;;;;;5003499;28;20032;-86
2022/02/15 12:54:06;;;;;;;4.80;1.30;;;11.20;95.20;;;;;;5004457;28;20041;-85
2022/02/15 12:56:34;;;;;;;4.82;1.40;;;11.10;94.40;;;;;;5003519;28;20125;-87
2022/02/15 12:59:10;;;;;;;6.45;1.42;;;10.80;94.80;;;;;;5025160;28;20018;-88
2022/02/15 13:01:38;;;;;;;5.63;1.20;;;10.80;94.80;;;;;;5004029;28;20017;-87
2022/02/15 13:04:08;;;;;;;4.38;1.15;;;10.70;94.80;;;;;;5006799;28;20438;-87
2022/02/15 13:06:41;;;;;;;2.80;1.10;;;10.70;95.40;;;;;;5002572;28;20030;-87
2022/02/15 13:09:11;;;;;;;5.72;1.35;;;10.80;95.20;;;;;;5003199;28;20057;-86
2022/02/15 13:11:38;;;;;;;5.93;1.40;;;11.00;93.60;;;;;;5005981;28;20028;-85
2022/02/15 13:14:05;;;;;;;4.13;1.30;;;;;;;;;;5019736;28;20120;-89
2022/02/15 13:16:42;;;;;;;4.00;1.17;;;11.30;92.50;;;;;;5029112;28;20136;-85
2022/02/15 13:19:08;;;;;;;5.03;1.45;;;11.30;92.40;;;;;;5002255;28;20021;-86